createdAt,value
2022-10-11T00:02:59.009Z,60.50
2022-10-11T00:06:03.759Z,56.45
2022-10-11T00:09:07.389Z,52.03
2022-10-11T00:12:10.663Z,51.38
2022-10-11T00:15:19.723Z,51.57
2022-10-11T00:18:23.186Z,48.83
2022-10-11T00:21:26.349Z,53.85
2022-10-11T00:24:29.150Z,52.90
2022-10-11T00:27:31.906Z,53.63
2022-10-11T00:30:34.768Z,50.43
2022-10-11T00:33:37.755Z,57.95
2022-10-11T00:36:40.495Z,53.38
2022-10-11T00:39:43.288Z,52.15
2022-10-11T00:42:46.487Z,53.10
2022-10-11T00:45:58.593Z,55.63
2022-10-11T00:49:07.182Z,55.40
2022-10-11T00:52:20.689Z,57.75
2022-10-11T00:55:26.992Z,61.78
2022-10-11T00:58:30.167Z,57.40
2022-10-11T01:01:33.251Z,58.07
2022-10-11T01:04:36.188Z,51.13
2022-10-11T01:07:39.750Z,52.75
2022-10-11T01:10:42.769Z,47.60
2022-10-11T01:13:45.411Z,52.33
2022-10-11T01:17:10.394Z,75.80
2022-10-11T01:20:19.291Z,61.72
2022-10-11T01:23:46.604Z,82.20
2022-10-11T01:27:01.212Z,75.55
2022-10-11T01:30:07.859Z,70.55
2022-10-11T01:33:18.771Z,59.60
2022-10-11T01:36:36.910Z,62.83
2022-10-11T01:39:48.219Z,56.60
2022-10-11T01:42:54.398Z,59.78
2022-10-11T01:45:59.248Z,52.67
2022-10-11T01:49:03.326Z,62.13
2022-10-11T01:52:07.420Z,65.60
2022-10-11T01:55:46.506Z,50.45
2022-10-11T01:59:07.425Z,53.75
2022-10-11T02:02:13.217Z,52.65
2022-10-11T02:05:38.233Z,49.27
2022-10-11T02:08:54.744Z,58.72
2022-10-11T02:12:10.763Z,58.05
2022-10-11T02:15:16.291Z,55.63
2022-10-11T02:18:23.814Z,50.63
2022-10-11T02:21:27.845Z,54.63
2022-10-11T02:24:40.803Z,57.83
2022-10-11T02:27:46.803Z,59.15
2022-10-11T02:30:52.835Z,51.40
2022-10-11T02:34:33.825Z,57.05
2022-10-11T02:37:55.461Z,56.33
2022-10-11T02:41:06.044Z,53.78
2022-10-11T02:44:16.291Z,59.22
2022-10-11T02:47:19.613Z,53.95
2022-10-11T02:50:23.339Z,58.13
2022-10-11T02:53:27.338Z,56.07
2022-10-11T02:56:30.030Z,53.67
2022-10-11T02:59:33.140Z,55.17
2022-10-11T03:02:35.917Z,61.22
2022-10-11T03:05:41.763Z,60.22
2022-10-11T03:08:44.499Z,55.10
2022-10-11T03:11:47.229Z,57.53
2022-10-11T03:14:49.906Z,60.83
2022-10-11T03:17:52.606Z,54.60
2022-10-11T03:20:55.827Z,54.03
2022-10-11T03:23:58.574Z,57.17
2022-10-11T03:27:01.314Z,53.08
2022-10-11T03:30:05.030Z,60.63
2022-10-11T03:33:08.303Z,56.85
2022-10-11T03:36:11.219Z,54.60
2022-10-11T03:39:14.015Z,49.13
2022-10-11T03:42:17.345Z,51.35
2022-10-11T03:45:20.098Z,64.28
2022-10-11T03:48:22.970Z,58.22
2022-10-11T03:51:25.709Z,60.33
2022-10-11T03:54:28.604Z,58.53
2022-10-11T03:57:31.499Z,58.97
2022-10-11T04:00:35.585Z,60.30
2022-10-11T04:03:38.428Z,60.80
2022-10-11T04:06:41.211Z,61.03
2022-10-11T04:09:43.973Z,64.67
2022-10-11T04:12:46.845Z,58.45
2022-10-11T04:15:49.592Z,59.55
2022-10-11T04:18:52.413Z,58.55
2022-10-11T04:21:56.039Z,80.03
2022-10-11T04:24:58.725Z,73.13
2022-10-11T04:28:01.639Z,64.43
2022-10-11T04:31:08.173Z,67.88
2022-10-11T04:34:10.933Z,60.78
2022-10-11T04:37:13.853Z,63.40
2022-10-11T04:40:16.699Z,57.93
2022-10-11T04:43:19.540Z,61.45
2022-10-11T04:46:22.369Z,63.15
2022-10-11T04:49:25.121Z,64.30
2022-10-11T04:52:27.949Z,62.45
2022-10-11T04:55:30.687Z,62.40
2022-10-11T04:58:35.453Z,81.85
2022-10-11T05:01:38.251Z,82.72
2022-10-11T05:04:41.043Z,72.35
2022-10-11T05:07:44.371Z,68.32
2022-10-11T05:11:05.159Z,61.67
2022-10-11T05:14:07.910Z,59.40
2022-10-11T05:17:10.649Z,68.13
2022-10-11T05:20:13.994Z,54.35
2022-10-11T05:23:16.754Z,58.42
2022-10-11T05:26:29.346Z,54.90
2022-10-11T05:29:32.026Z,53.78
2022-10-11T05:36:49.553Z,73.88
2022-10-11T05:39:54.701Z,72.57
2022-10-11T05:43:07.587Z,77.13
2022-10-11T05:46:15.045Z,75.88
2022-10-11T05:49:22.714Z,61.55
2022-10-11T05:52:26.973Z,65.53
2022-10-11T05:55:31.246Z,64.30
2022-10-11T05:58:34.314Z,80.77
2022-10-11T06:01:37.262Z,80.20
2022-10-11T06:04:40.500Z,79.63
2022-10-11T06:07:46.283Z,75.70
2022-10-11T06:10:51.233Z,70.97
2022-10-11T06:13:59.058Z,63.03
2022-10-11T06:17:07.790Z,55.40
2022-10-11T06:20:11.694Z,62.92
2022-10-11T06:23:14.557Z,55.83
2022-10-11T06:26:18.898Z,50.45
2022-10-11T06:29:22.647Z,50.07
2022-10-11T06:32:25.651Z,50.90
2022-10-11T06:35:28.513Z,49.63
2022-10-11T06:38:31.440Z,50.97
2022-10-11T06:41:34.195Z,48.30
2022-10-11T06:44:37.208Z,48.27
2022-10-11T06:47:39.970Z,42.03
2022-10-11T06:50:59.155Z,44.58
2022-10-11T06:54:04.049Z,41.20
2022-10-11T06:57:06.837Z,42.95
2022-10-11T07:00:12.622Z,40.50
2022-10-11T07:03:15.734Z,40.75
2022-10-11T07:06:21.595Z,35.10
2022-10-11T07:09:24.477Z,30.52
2022-10-11T07:12:27.609Z,36.42
2022-10-11T07:15:38.342Z,32.63
2022-10-11T07:18:42.543Z,32.45
2022-10-11T07:21:45.565Z,34.47
2022-10-11T07:24:55.691Z,29.98
2022-10-11T07:28:12.111Z,31.83
2022-10-11T07:31:22.838Z,27.83
2022-10-11T07:34:25.655Z,31.00
2022-10-11T07:37:28.631Z,32.90
2022-10-11T07:40:41.033Z,29.85
2022-10-11T07:43:44.107Z,33.45
2022-10-11T07:46:46.849Z,30.27
2022-10-11T07:49:49.715Z,30.30
2022-10-11T07:52:52.504Z,30.08
2022-10-11T07:55:55.352Z,29.52
2022-10-11T07:59:01.028Z,36.10
2022-10-11T08:02:03.907Z,32.53
2022-10-11T08:05:06.919Z,33.13
2022-10-11T08:08:09.765Z,32.30
2022-10-11T08:11:23.567Z,33.17
2022-10-11T08:14:26.420Z,30.42
2022-10-11T08:17:30.006Z,35.33
2022-10-11T08:20:33.485Z,31.00
2022-10-11T08:23:36.375Z,32.65
2022-10-11T08:26:39.934Z,35.45
2022-10-11T08:29:42.776Z,41.33
2022-10-11T08:32:45.637Z,29.03
2022-10-11T08:35:49.773Z,33.38
2022-10-11T08:38:52.630Z,32.65
2022-10-11T08:42:07.111Z,32.30
2022-10-11T08:45:21.946Z,31.88
2022-10-11T08:48:45.159Z,41.03
2022-10-11T08:51:53.360Z,31.02
2022-10-11T08:55:06.628Z,28.85
2022-10-11T08:58:15.258Z,30.95
2022-10-11T09:01:25.356Z,31.40
2022-10-11T09:04:28.467Z,25.80
2022-10-11T09:07:49.784Z,30.80
2022-10-11T09:11:25.716Z,22.52
2022-10-11T09:14:40.640Z,29.30
2022-10-11T09:17:55.689Z,26.42
2022-10-11T09:21:20.000Z,26.60
2022-10-11T09:24:47.455Z,25.30
2022-10-11T09:28:02.786Z,24.25
2022-10-11T09:31:10.779Z,28.70
2022-10-11T09:34:54.195Z,22.08
2022-10-11T09:38:37.703Z,22.13
2022-10-11T09:41:47.018Z,21.40
2022-10-11T09:44:51.501Z,25.42
2022-10-11T09:47:57.890Z,22.75
2022-10-11T09:51:23.283Z,22.40
2022-10-11T09:54:42.990Z,24.60
2022-10-11T09:57:55.315Z,21.10
2022-10-11T10:01:08.603Z,22.17
2022-10-11T10:04:19.186Z,23.25
2022-10-11T10:07:22.788Z,24.15
2022-10-11T10:10:43.076Z,35.07
2022-10-11T10:13:57.271Z,21.33
2022-10-11T10:17:20.859Z,50.08
2022-10-11T10:20:34.312Z,22.30
2022-10-11T10:23:39.550Z,23.73
2022-10-11T10:26:42.711Z,23.43
2022-10-11T10:30:08.815Z,27.35
2022-10-11T10:33:12.097Z,20.13
2022-10-11T10:36:34.570Z,33.90
2022-10-11T10:39:52.068Z,20.50
2022-10-11T10:42:59.481Z,22.27
2022-10-11T10:46:30.603Z,25.10
2022-10-11T10:49:55.013Z,23.13
2022-10-11T10:53:23.106Z,20.70
2022-10-11T10:56:40.617Z,20.67
2022-10-11T10:59:49.765Z,21.63
2022-10-11T11:03:13.609Z,18.20
2022-10-11T11:06:23.355Z,23.00
2022-10-11T11:09:55.601Z,15.45
2022-10-11T11:13:20.033Z,23.25
2022-10-11T11:16:22.891Z,28.57
2022-10-11T11:19:57.361Z,27.40
2022-10-11T11:23:51.193Z,21.67
2022-10-11T11:27:23.635Z,19.98
2022-10-11T11:30:57.781Z,38.15
2022-10-11T11:34:23.469Z,59.47
2022-10-11T11:37:34.672Z,35.67
2022-10-11T11:40:45.361Z,18.77
2022-10-11T11:44:03.734Z,23.00
2022-10-11T11:47:17.997Z,22.60
2022-10-11T11:50:31.537Z,20.17
2022-10-11T11:53:59.340Z,20.85
2022-10-11T11:57:36.197Z,24.02
2022-10-11T12:00:49.808Z,22.58
2022-10-11T12:03:56.467Z,22.55
2022-10-11T12:07:17.687Z,29.90
2022-10-11T12:10:40.890Z,26.05
2022-10-11T12:13:44.757Z,25.10
2022-10-11T12:17:24.883Z,33.42
2022-10-11T12:20:33.901Z,26.27
2022-10-11T12:23:43.767Z,26.43
2022-10-11T12:26:49.266Z,32.20
2022-10-11T12:29:52.012Z,25.40
2022-10-11T12:33:06.379Z,22.27
2022-10-11T12:36:24.053Z,23.02
2022-10-11T12:39:27.079Z,24.13
2022-10-11T12:42:36.984Z,23.67
2022-10-11T12:45:39.907Z,23.08
2022-10-11T12:48:54.854Z,27.05
2022-10-11T12:52:19.211Z,28.05
2022-10-11T12:55:43.640Z,28.97
2022-10-11T12:58:50.067Z,26.92
2022-10-11T13:01:55.768Z,27.70
2022-10-11T13:05:23.940Z,25.63
2022-10-11T13:08:35.029Z,25.55
2022-10-11T13:11:46.441Z,31.23
2022-10-11T13:15:05.455Z,22.17
2022-10-11T13:18:14.425Z,23.77
2022-10-11T13:21:21.583Z,21.60
2022-10-11T13:24:28.800Z,21.38
2022-10-11T13:27:31.931Z,22.30
2022-10-11T13:30:37.410Z,19.75
2022-10-11T13:33:44.570Z,22.08
2022-10-11T13:36:47.514Z,19.63
2022-10-11T13:39:55.633Z,26.00
2022-10-11T13:42:58.917Z,27.03
2022-10-11T13:46:06.784Z,27.67
2022-10-11T13:49:37.989Z,28.13
2022-10-11T13:52:58.837Z,23.95
2022-10-11T13:56:06.371Z,24.10
2022-10-11T13:59:18.415Z,26.07
2022-10-11T14:02:23.868Z,25.10
2022-10-11T14:05:45.164Z,21.98
2022-10-11T14:08:53.699Z,25.15
2022-10-11T14:12:16.480Z,24.95
2022-10-11T14:15:35.895Z,25.00
2022-10-11T14:18:41.355Z,31.48
2022-10-11T14:21:45.857Z,25.38
2022-10-11T14:24:48.928Z,29.25
2022-10-11T14:27:52.115Z,21.90
2022-10-11T14:30:55.469Z,23.70
2022-10-11T14:33:59.047Z,24.50
2022-10-11T14:37:01.900Z,22.77
2022-10-11T14:40:14.717Z,23.25
2022-10-11T14:43:17.435Z,23.23
2022-10-11T14:46:25.408Z,24.10
2022-10-11T14:49:30.475Z,24.60
2022-10-11T14:52:33.278Z,25.83
2022-10-11T14:55:39.780Z,30.80
2022-10-11T14:58:42.882Z,24.63
2022-10-11T15:01:46.937Z,28.27
2022-10-11T15:04:49.678Z,28.50
2022-10-11T15:07:52.663Z,30.42
2022-10-11T15:10:55.381Z,28.80
2022-10-11T15:13:58.312Z,32.20
2022-10-11T15:17:01.030Z,56.10
2022-10-11T15:20:04.583Z,50.92
2022-10-11T15:23:09.954Z,41.00
2022-10-11T15:26:18.116Z,31.98
2022-10-11T15:29:22.453Z,29.23
2022-10-11T15:32:25.183Z,27.83
2022-10-11T15:35:29.739Z,33.50
2022-10-11T15:38:32.683Z,47.28
2022-10-11T15:41:36.298Z,41.85
2022-10-11T15:44:39.086Z,48.92
2022-10-11T15:47:41.917Z,62.53
2022-10-11T15:50:45.812Z,68.47
2022-10-11T15:53:48.653Z,57.08
2022-10-11T15:56:51.713Z,56.90
2022-10-11T15:59:54.589Z,52.75
2022-10-11T16:02:59.545Z,45.83
2022-10-11T16:06:05.572Z,51.65
2022-10-11T16:09:08.723Z,40.65
2022-10-11T16:12:11.526Z,42.67
2022-10-11T16:15:14.956Z,44.00
2022-10-11T16:18:20.301Z,45.20
2022-10-11T16:21:24.297Z,35.85
2022-10-11T16:24:27.578Z,42.58
2022-10-11T16:27:30.940Z,40.67
2022-10-11T16:30:34.830Z,38.50
2022-10-11T16:33:46.094Z,42.50
2022-10-11T16:36:49.306Z,65.78
2022-10-11T16:39:52.149Z,70.40
2022-10-11T16:42:54.829Z,76.55
2022-10-11T16:45:57.818Z,85.65
2022-10-11T16:49:00.962Z,73.63
2022-10-11T16:52:04.634Z,64.28
2022-10-11T16:55:07.791Z,56.90
2022-10-11T16:58:11.172Z,54.88
2022-10-11T17:01:14.469Z,53.40
2022-10-11T17:04:17.366Z,42.97
2022-10-11T17:07:21.304Z,44.90
2022-10-11T17:10:39.451Z,43.25
2022-10-11T17:13:42.503Z,47.75
2022-10-11T17:16:46.051Z,49.75
2022-10-11T17:19:49.021Z,44.57
2022-10-11T17:22:51.830Z,38.90
2022-10-11T17:25:54.610Z,37.13
2022-10-11T17:28:59.741Z,42.60
2022-10-11T17:32:03.710Z,41.55
2022-10-11T17:35:06.854Z,43.77
2022-10-11T17:38:09.545Z,38.67
2022-10-11T17:41:12.758Z,42.30
2022-10-11T17:44:18.847Z,39.47
2022-10-11T17:47:21.611Z,40.90
2022-10-11T17:50:24.309Z,50.80
2022-10-11T17:53:27.126Z,49.90
2022-10-11T17:56:35.087Z,52.58
2022-10-11T17:59:40.261Z,59.28
2022-10-11T18:02:42.994Z,46.70
2022-10-11T18:05:45.793Z,46.07
2022-10-11T18:08:48.873Z,41.80
2022-10-11T18:11:51.875Z,42.35
2022-10-11T18:14:54.694Z,38.83
2022-10-11T18:17:58.658Z,42.38
2022-10-11T18:21:01.637Z,36.90
2022-10-11T18:24:08.173Z,42.03
2022-10-11T18:27:11.087Z,36.03
2022-10-11T18:30:14.843Z,38.60
2022-10-11T18:33:17.585Z,39.38
2022-10-11T18:36:26.943Z,36.83
2022-10-11T18:39:29.997Z,35.90
2022-10-11T18:42:33.038Z,34.97
2022-10-11T18:45:35.784Z,33.55
2022-10-11T18:48:43.760Z,34.70
2022-10-11T18:51:46.816Z,38.33
2022-10-11T18:54:49.625Z,35.63
2022-10-11T18:57:52.457Z,43.85
2022-10-11T19:00:55.562Z,44.70
2022-10-11T19:04:00.071Z,43.42
2022-10-11T19:07:03.350Z,44.97
2022-10-11T19:10:06.795Z,53.72
2022-10-11T19:13:09.746Z,48.10
2022-10-11T19:16:17.210Z,48.45
2022-10-11T19:19:25.769Z,44.72
2022-10-11T19:22:28.536Z,40.53
2022-10-11T19:25:34.958Z,47.42
2022-10-11T19:28:37.845Z,41.92
2022-10-11T19:31:43.366Z,38.05
2022-10-11T19:34:46.138Z,42.08
2022-10-11T19:37:49.080Z,42.33
2022-10-11T19:40:52.444Z,40.15
2022-10-11T19:43:58.363Z,38.58
2022-10-11T19:47:05.261Z,42.42
2022-10-11T19:50:09.356Z,41.40
2022-10-11T19:53:12.182Z,51.37
2022-10-11T19:56:18.060Z,53.60
2022-10-11T19:59:21.082Z,50.60
2022-10-11T20:02:23.866Z,44.78
2022-10-11T20:05:26.588Z,47.55
2022-10-11T20:08:31.482Z,46.57
2022-10-11T20:11:34.388Z,40.15
2022-10-11T20:14:37.152Z,41.85
2022-10-11T20:17:48.914Z,38.35
2022-10-11T20:20:53.086Z,45.60
2022-10-11T20:24:01.487Z,43.27
2022-10-11T20:27:05.690Z,39.65
2022-10-11T20:30:08.848Z,36.47
2022-10-11T20:33:11.696Z,39.03
2022-10-11T20:36:22.460Z,34.88
2022-10-11T20:39:25.504Z,38.53
2022-10-11T20:42:29.963Z,42.38
2022-10-11T20:45:32.784Z,40.72
2022-10-11T20:48:36.754Z,37.97
2022-10-11T20:51:42.167Z,41.15
2022-10-11T20:54:44.985Z,38.23
2022-10-11T20:57:47.844Z,42.47
2022-10-11T21:00:50.621Z,39.33
2022-10-11T21:03:53.842Z,37.70
2022-10-11T21:06:56.583Z,40.50
2022-10-11T21:09:59.425Z,39.40
2022-10-11T21:13:02.674Z,41.85
2022-10-11T21:16:12.878Z,36.60
2022-10-11T21:19:16.257Z,41.97
2022-10-11T21:22:19.475Z,37.17
2022-10-11T21:25:22.316Z,36.50
2022-10-11T21:28:25.139Z,39.40
2022-10-11T21:31:32.897Z,40.45
2022-10-11T21:34:36.675Z,40.88
2022-10-11T21:37:39.440Z,37.28
2022-10-11T21:40:42.286Z,38.60
2022-10-11T21:43:45.449Z,39.65
2022-10-11T21:47:05.992Z,39.53
2022-10-11T21:50:10.186Z,38.28
2022-10-11T21:53:12.850Z,37.42
2022-10-11T21:56:15.587Z,43.30
2022-10-11T21:59:18.318Z,41.05
2022-10-11T22:02:21.022Z,40.45
2022-10-11T22:05:24.340Z,37.53
2022-10-11T22:08:27.180Z,37.03
2022-10-11T22:11:30.208Z,37.70
2022-10-11T22:14:33.106Z,39.85
2022-10-11T22:17:35.978Z,38.28
2022-10-11T22:20:38.882Z,38.33
2022-10-11T22:23:43.444Z,42.70
2022-10-11T22:26:46.271Z,38.87
2022-10-11T22:29:49.070Z,44.65
2022-10-11T22:32:52.325Z,46.05
2022-10-11T22:35:56.562Z,44.95
2022-10-11T22:39:00.093Z,43.35
2022-10-11T22:42:02.777Z,43.17
2022-10-11T22:45:05.790Z,41.95
2022-10-11T22:48:09.146Z,38.58
2022-10-11T22:51:11.891Z,44.38
2022-10-11T22:54:14.759Z,52.20
2022-10-11T22:57:17.791Z,45.97
2022-10-11T23:00:21.620Z,44.67
2022-10-11T23:03:25.133Z,41.20
2022-10-11T23:06:27.908Z,53.33
2022-10-11T23:09:31.707Z,46.38
2022-10-11T23:12:34.881Z,48.50
2022-10-11T23:15:40.719Z,39.38
2022-10-11T23:18:43.686Z,43.95
2022-10-11T23:21:46.966Z,37.50
2022-10-11T23:24:49.883Z,40.10
2022-10-11T23:27:52.524Z,45.80
2022-10-11T23:30:55.348Z,40.90
2022-10-11T23:33:58.134Z,40.20
2022-10-11T23:37:01.928Z,43.75
2022-10-11T23:40:05.226Z,38.55
2022-10-11T23:43:08.094Z,35.53
2022-10-11T23:46:11.279Z,39.58
2022-10-11T23:49:17.611Z,41.13
2022-10-11T23:52:20.523Z,35.75
2022-10-11T23:55:23.499Z,32.05
2022-10-11T23:58:26.611Z,40.73
